weather.gov     
National Weather Service

Terminal Aerodrome Forecast
NWS Homepage
This page is being discontinued on March 12, 2014.
The same data is available at this site. Please update your bookmarks.
Thank you, and we apologize for the inconvenience.
Please send an email to SR-SRH.Webmaster@noaa.gov with any concerns.


Current Version
Previous Version:    01  02  03  04  05  06  07  08  09  10  11  12  13  14  15  16  17  18  19  20  21  22  23  24  25  26  27  28  29  30  
   31  
[Printable]
655
FTUS46 KPQR 182330
TAFAST
TAF
KAST 182330Z 1900/1924 18017G29KT 5SM -RADZ BR SCT009 BKN018 OVC030
      TEMPO 1900/1904 3SM RADZ BR BKN009 OVC015
     FM190400 21012KT P6SM -RADZ SCT015 BKN020 OVC035
     FM190700 22008KT P6SM -SHRA SCT025 BKN045 BKN060
     FM191700 19009KT P6SM -SHRA SCT045 BKN060=




655
FTUS46 KPQR 182330
TAFAST
TAF
KAST 182330Z 1900/1924 18017G29KT 5SM -RADZ BR SCT009 BKN018 OVC030
      TEMPO 1900/1904 3SM RADZ BR BKN009 OVC015
     FM190400 21012KT P6SM -RADZ SCT015 BKN020 OVC035
     FM190700 22008KT P6SM -SHRA SCT025 BKN045 BKN060
     FM191700 19009KT P6SM -SHRA SCT045 BKN060=


U.S. Dept. of Commerce
NOAA National Weather Service
1325 East West Highway
Silver Spring, MD 20910
E-mail: w-nws.webmaster@noaa.gov
Page last modified: May 16, 2007
NATIONAL WEATHER SERVICE: for Safety, for Work, for Fun - FOR LIFE